createdAt,value
2019-03-28T00:01:36.815Z,10.70
2019-03-28T00:04:07.294Z,10.70
2019-03-28T00:06:36.443Z,10.70
2019-03-28T00:09:07.915Z,10.70
2019-03-28T00:11:36.947Z,10.70
2019-03-28T00:14:05.792Z,10.70
2019-03-28T00:16:34.635Z,10.70
2019-03-28T00:19:03.574Z,10.60
2019-03-28T00:21:32.120Z,10.60
2019-03-28T00:24:17.639Z,10.60
2019-03-28T00:26:46.594Z,10.60
2019-03-28T00:29:15.150Z,10.60
2019-03-28T00:31:44.245Z,10.60
2019-03-28T00:34:14.138Z,10.60
2019-03-28T00:36:42.956Z,10.50
2019-03-28T00:39:13.610Z,10.50
2019-03-28T00:41:42.432Z,10.60
2019-03-28T00:44:12.340Z,10.60
2019-03-28T00:46:41.290Z,10.50
2019-03-28T00:49:09.857Z,10.50
2019-03-28T00:51:38.679Z,10.40
2019-03-28T00:54:07.550Z,10.40
2019-03-28T00:56:46.622Z,10.40
2019-03-28T00:59:07.928Z,10.30
2019-03-28T01:01:36.639Z,10.30
2019-03-28T01:04:05.602Z,10.30
2019-03-28T01:06:34.441Z,10.20
2019-03-28T01:09:04.299Z,10.20
2019-03-28T01:11:32.953Z,10.20
2019-03-28T01:14:01.850Z,10.20
2019-03-28T01:16:30.441Z,10.20
2019-03-28T01:18:59.291Z,10.20
2019-03-28T01:21:28.161Z,10.20
2019-03-28T01:23:57.153Z,10.20
2019-03-28T01:26:25.778Z,10.20
2019-03-28T01:28:54.565Z,10.20
2019-03-28T01:31:23.179Z,10.20
2019-03-28T01:33:52.631Z,10.20
2019-03-28T01:36:21.633Z,10.20
2019-03-28T01:38:50.647Z,10.20
2019-03-28T01:41:19.488Z,10.20
2019-03-28T01:43:48.525Z,10.20
2019-03-28T01:46:17.205Z,10.20
2019-03-28T01:48:46.166Z,10.20
2019-03-28T01:51:16.413Z,10.20
2019-03-28T01:53:45.439Z,10.20
2019-03-28T01:56:15.987Z,10.20
2019-03-28T01:58:45.061Z,10.20
2019-03-28T02:01:13.976Z,10.20
2019-03-28T02:03:43.004Z,10.20
2019-03-28T02:06:12.101Z,10.20
2019-03-28T02:08:41.248Z,10.10
2019-03-28T02:11:10.416Z,10.10
2019-03-28T02:13:40.103Z,10.00
2019-03-28T02:16:08.827Z,10.00
2019-03-28T02:18:37.741Z,10.00
2019-03-28T02:21:09.425Z,10.10
2019-03-28T02:23:36.645Z,10.10
2019-03-28T02:26:05.643Z,10.00
2019-03-28T02:28:34.519Z,9.90
2019-03-28T02:31:04.581Z,9.90
2019-03-28T02:33:33.176Z,9.90
2019-03-28T02:36:02.124Z,9.90
2019-03-28T02:38:32.329Z,9.90
2019-03-28T02:41:02.363Z,9.80
2019-03-28T02:43:31.246Z,9.80
2019-03-28T02:46:04.332Z,9.90
2019-03-28T02:48:33.333Z,9.90
2019-03-28T02:51:01.905Z,9.90
2019-03-28T02:53:30.711Z,9.90
2019-03-28T02:56:00.408Z,9.90
2019-03-28T02:58:29.302Z,9.90
2019-03-28T03:01:00.687Z,9.90
2019-03-28T03:03:29.356Z,9.80
2019-03-28T03:05:59.486Z,9.80
2019-03-28T03:08:28.370Z,9.80
2019-03-28T03:10:57.272Z,9.80
2019-03-28T03:13:27.719Z,9.80
2019-03-28T03:15:56.947Z,9.80
2019-03-28T03:18:26.005Z,9.80
2019-03-28T03:20:56.427Z,9.70
2019-03-28T03:23:26.439Z,9.80
2019-03-28T03:25:55.108Z,9.80
2019-03-28T03:28:24.014Z,9.70
2019-03-28T03:30:54.254Z,9.70
2019-03-28T03:33:24.651Z,9.70
2019-03-28T03:35:53.332Z,9.70
2019-03-28T03:38:22.031Z,9.60
2019-03-28T03:40:50.893Z,9.60
2019-03-28T03:43:19.513Z,9.60
2019-03-28T03:45:51.582Z,9.60
2019-03-28T03:48:20.141Z,9.60
2019-03-28T03:50:52.109Z,9.70
2019-03-28T03:53:21.681Z,9.70
2019-03-28T03:55:50.525Z,9.70
2019-03-28T03:58:19.454Z,9.60
2019-03-28T04:00:48.267Z,9.70
2019-03-28T04:03:17.314Z,9.60
2019-03-28T04:05:46.966Z,9.60
2019-03-28T04:08:15.525Z,9.50
2019-03-28T04:10:44.188Z,9.50
2019-03-28T04:13:12.789Z,9.50
2019-03-28T04:15:41.644Z,9.50
2019-03-28T04:18:10.302Z,9.50
2019-03-28T04:20:39.311Z,9.40
2019-03-28T04:23:08.424Z,9.40
2019-03-28T04:25:37.278Z,9.40
2019-03-28T04:28:05.941Z,9.30
2019-03-28T04:30:35.996Z,9.30
2019-03-28T04:33:04.743Z,9.30
2019-03-28T04:35:33.291Z,9.30
2019-03-28T04:38:01.971Z,9.20
2019-03-28T04:40:30.921Z,9.20
2019-03-28T04:43:00.781Z,9.20
2019-03-28T04:45:29.350Z,9.20
2019-03-28T04:47:58.421Z,9.20
2019-03-28T04:50:27.274Z,9.30
2019-03-28T04:52:55.900Z,9.30
2019-03-28T04:55:24.819Z,9.30
2019-03-28T04:57:55.973Z,9.30
2019-03-28T05:00:26.063Z,9.30
2019-03-28T05:02:54.938Z,9.30
2019-03-28T05:05:23.828Z,9.30
2019-03-28T05:07:52.707Z,9.30
2019-03-28T05:10:24.988Z,9.20
2019-03-28T05:12:57.659Z,9.20
2019-03-28T05:15:26.246Z,9.20
2019-03-28T05:17:55.087Z,9.20
2019-03-28T05:20:23.691Z,9.20
2019-03-28T05:22:52.281Z,9.20
2019-03-28T05:25:21.144Z,9.20
2019-03-28T05:27:49.731Z,9.20
2019-03-28T05:30:19.021Z,9.20
2019-03-28T05:32:47.908Z,9.20
2019-03-28T05:35:16.808Z,9.20
2019-03-28T05:37:45.717Z,9.20
2019-03-28T05:40:16.232Z,9.20
2019-03-28T05:42:44.823Z,9.20
2019-03-28T05:45:15.291Z,9.20
2019-03-28T05:47:44.184Z,9.20
2019-03-28T05:50:14.359Z,9.20
2019-03-28T05:52:42.939Z,9.20
2019-03-28T05:55:12.319Z,9.20
2019-03-28T05:57:41.040Z,9.30
2019-03-28T06:00:14.052Z,9.30
2019-03-28T06:02:43.040Z,9.30
2019-03-28T06:05:11.728Z,9.30
2019-03-28T06:07:40.726Z,9.30
2019-03-28T06:10:10.454Z,9.30
2019-03-28T06:12:42.018Z,9.30
2019-03-28T06:15:12.672Z,9.30
2019-03-28T06:17:43.047Z,9.30
2019-03-28T06:20:13.123Z,9.30
2019-03-28T06:22:42.077Z,9.30
2019-03-28T06:25:10.811Z,9.30
2019-03-28T06:27:39.797Z,9.40
2019-03-28T06:30:09.317Z,9.40
2019-03-28T06:32:43.041Z,9.40
2019-03-28T06:35:08.703Z,9.40
2019-03-28T06:37:37.603Z,9.40
2019-03-28T06:40:07.086Z,9.50
2019-03-28T06:42:35.692Z,9.50
2019-03-28T06:45:06.703Z,9.50
2019-03-28T06:47:35.770Z,9.50
2019-03-28T06:50:07.051Z,9.50
2019-03-28T06:52:36.025Z,9.50
2019-03-28T06:55:06.098Z,9.50
2019-03-28T06:57:34.703Z,9.60
2019-03-28T07:00:04.771Z,9.60
2019-03-28T07:02:33.342Z,9.60
2019-03-28T07:05:01.959Z,9.60
2019-03-28T07:07:30.543Z,9.60
2019-03-28T07:10:02.190Z,9.60
2019-03-28T07:12:29.347Z,9.60
2019-03-28T07:14:59.727Z,9.70
2019-03-28T07:17:28.655Z,9.70
2019-03-28T07:19:57.239Z,9.70
2019-03-28T07:22:25.906Z,9.80
2019-03-28T07:24:54.431Z,9.90
2019-03-28T07:27:23.290Z,9.90
2019-03-28T07:29:52.991Z,10.00
2019-03-28T07:32:22.175Z,10.10
2019-03-28T07:34:52.361Z,10.20
2019-03-28T07:37:22.129Z,10.40
2019-03-28T07:39:50.775Z,10.50
2019-03-28T07:42:19.619Z,10.70
2019-03-28T07:44:48.243Z,11.00
2019-03-28T07:47:17.166Z,11.30
2019-03-28T07:49:46.139Z,11.50
2019-03-28T07:52:19.763Z,11.70
2019-03-28T07:54:45.381Z,11.80
2019-03-28T07:57:16.763Z,12.00
2019-03-28T07:59:45.619Z,12.40
2019-03-28T08:02:14.491Z,13.20
2019-03-28T08:04:43.240Z,14.10
2019-03-28T08:07:12.165Z,14.40
2019-03-28T08:09:44.297Z,14.50
2019-03-28T08:12:22.359Z,14.40
2019-03-28T08:14:43.221Z,14.30
2019-03-28T08:17:11.843Z,14.30
2019-03-28T08:19:41.723Z,14.30
2019-03-28T08:22:10.398Z,14.40
2019-03-28T08:24:38.983Z,14.40
2019-03-28T08:27:07.571Z,14.50
2019-03-28T08:29:39.367Z,14.70
2019-03-28T08:32:09.926Z,14.70
2019-03-28T08:34:39.033Z,14.80
2019-03-28T08:37:09.113Z,15.00
2019-03-28T08:39:44.359Z,15.10
2019-03-28T08:42:09.855Z,15.00
2019-03-28T08:44:38.868Z,14.90
2019-03-28T08:47:07.655Z,14.90
2019-03-28T08:49:36.407Z,14.90
2019-03-28T08:52:04.954Z,15.00
2019-03-28T08:54:33.915Z,15.10
2019-03-28T08:57:02.959Z,15.30
2019-03-28T08:59:33.080Z,15.50
2019-03-28T09:02:04.814Z,16.00
2019-03-28T09:04:32.222Z,16.30
2019-03-28T09:07:01.049Z,16.60
2019-03-28T09:09:31.570Z,17.00
2019-03-28T09:12:02.150Z,17.30
2019-03-28T09:14:31.986Z,17.30
2019-03-28T09:17:01.100Z,17.00
2019-03-28T09:19:30.568Z,16.60
2019-03-28T09:21:59.546Z,16.30
2019-03-28T09:24:28.444Z,16.20
2019-03-28T09:26:57.230Z,16.10
2019-03-28T09:29:26.087Z,16.00
2019-03-28T09:31:54.718Z,15.90
2019-03-28T09:34:24.774Z,15.90
2019-03-28T09:36:53.412Z,15.70
2019-03-28T09:39:24.762Z,15.50
2019-03-28T09:41:53.842Z,15.40
2019-03-28T09:44:22.460Z,15.30
2019-03-28T09:46:51.034Z,15.00
2019-03-28T09:49:20.108Z,14.90
2019-03-28T09:51:49.063Z,14.70
2019-03-28T09:54:17.974Z,14.70
2019-03-28T09:56:46.694Z,14.70
2019-03-28T09:59:15.488Z,14.70
2019-03-28T10:01:47.158Z,14.60
2019-03-28T10:04:16.364Z,14.60
2019-03-28T10:06:44.987Z,14.70
2019-03-28T10:09:13.830Z,14.70
2019-03-28T10:11:42.414Z,14.70
2019-03-28T10:14:10.999Z,14.60
2019-03-28T10:16:40.489Z,14.60
2019-03-28T10:19:09.333Z,14.60
2019-03-28T10:21:37.987Z,14.60
2019-03-28T10:24:06.562Z,14.50
2019-03-28T10:26:35.502Z,14.50
2019-03-28T10:29:04.579Z,14.50
2019-03-28T10:31:33.903Z,14.70
2019-03-28T10:34:05.008Z,14.90
2019-03-28T10:36:33.601Z,15.10
2019-03-28T10:39:03.305Z,15.40
2019-03-28T10:41:31.866Z,15.70
2019-03-28T10:44:00.490Z,15.90
2019-03-28T10:46:29.167Z,16.10
2019-03-28T10:48:58.161Z,16.30
2019-03-28T10:51:28.052Z,16.20
2019-03-28T10:53:58.959Z,16.20
2019-03-28T10:56:27.669Z,16.10
2019-03-28T10:58:57.929Z,16.10
2019-03-28T11:01:46.968Z,16.20
2019-03-28T11:03:57.155Z,16.10
2019-03-28T11:06:27.668Z,16.00
2019-03-28T11:08:56.309Z,16.00
2019-03-28T11:11:24.861Z,16.10
2019-03-28T11:13:53.852Z,16.00
2019-03-28T11:16:22.374Z,16.10
2019-03-28T11:18:52.311Z,16.00
2019-03-28T11:21:21.383Z,15.90
2019-03-28T11:23:50.335Z,16.10
2019-03-28T11:26:19.875Z,16.20
2019-03-28T11:28:49.475Z,16.40
2019-03-28T11:31:18.372Z,16.50
2019-03-28T11:33:47.555Z,16.80
2019-03-28T11:36:16.183Z,17.00
2019-03-28T11:38:45.163Z,17.10
2019-03-28T11:41:14.065Z,17.20
2019-03-28T11:43:42.929Z,17.30
2019-03-28T11:46:11.503Z,17.30
2019-03-28T11:48:40.163Z,17.50
2019-03-28T11:51:09.028Z,17.50
2019-03-28T11:53:37.611Z,17.50
2019-03-28T11:56:06.313Z,17.50
2019-03-28T11:58:35.975Z,17.20
2019-03-28T12:01:04.599Z,17.10
2019-03-28T12:03:34.348Z,17.00
2019-03-28T12:06:06.773Z,16.80
2019-03-28T12:08:35.328Z,16.80
2019-03-28T12:11:04.609Z,16.80
2019-03-28T12:13:44.760Z,16.70
2019-03-28T12:16:07.530Z,16.50
2019-03-28T12:18:37.123Z,16.30
2019-03-28T12:21:05.704Z,16.20
2019-03-28T12:23:34.567Z,16.10
2019-03-28T12:26:04.033Z,16.00
2019-03-28T12:28:32.632Z,15.90
2019-03-28T12:31:01.793Z,15.80
2019-03-28T12:33:30.749Z,15.80
2019-03-28T12:35:59.789Z,15.80
2019-03-28T12:38:31.139Z,15.80
2019-03-28T12:41:01.087Z,15.70
2019-03-28T12:43:29.978Z,15.70
2019-03-28T12:45:58.920Z,15.80
2019-03-28T12:48:27.962Z,15.80
2019-03-28T12:50:59.025Z,15.80
2019-03-28T12:53:26.842Z,15.90
2019-03-28T12:55:55.704Z,15.90
2019-03-28T12:58:24.265Z,16.00
2019-03-28T13:00:52.869Z,16.00
2019-03-28T13:03:22.856Z,16.00
2019-03-28T13:05:52.642Z,16.10
2019-03-28T13:08:21.766Z,16.10
2019-03-28T13:10:50.298Z,16.00
2019-03-28T13:13:18.868Z,16.10
2019-03-28T13:15:47.560Z,16.20
2019-03-28T13:18:16.526Z,16.20
2019-03-28T13:20:45.493Z,16.20
2019-03-28T13:23:16.154Z,16.30
2019-03-28T13:25:46.472Z,16.40
2019-03-28T13:28:16.612Z,16.50
2019-03-28T13:30:46.176Z,16.60
2019-03-28T13:33:16.892Z,16.60
2019-03-28T13:35:45.890Z,16.60
2019-03-28T13:38:14.903Z,16.70
2019-03-28T13:40:43.745Z,16.80
2019-03-28T13:43:13.745Z,16.90
2019-03-28T13:45:42.651Z,17.00
2019-03-28T13:48:13.814Z,17.00
2019-03-28T13:50:43.429Z,17.00
2019-03-28T13:53:12.977Z,17.20
2019-03-28T13:55:42.824Z,17.20
2019-03-28T13:58:12.327Z,17.30
2019-03-28T14:00:54.433Z,17.30
2019-03-28T14:03:23.957Z,17.30
2019-03-28T14:05:59.325Z,17.00
2019-03-28T14:08:30.159Z,16.80
2019-03-28T14:10:59.147Z,16.70
2019-03-28T14:13:31.139Z,16.70
2019-03-28T14:16:00.105Z,16.60
2019-03-28T14:18:29.046Z,16.60
2019-03-28T14:20:57.672Z,16.60
2019-03-28T14:23:26.623Z,16.60
2019-03-28T14:25:55.478Z,16.70
2019-03-28T14:28:24.188Z,16.70
2019-03-28T14:30:52.796Z,16.80
2019-03-28T14:33:21.384Z,16.70
2019-03-28T14:35:54.868Z,16.70
2019-03-28T14:38:23.620Z,16.70
2019-03-28T14:40:52.509Z,16.50
2019-03-28T14:43:21.601Z,16.50
2019-03-28T14:45:50.137Z,16.70
2019-03-28T14:48:20.624Z,16.80
2019-03-28T14:50:49.088Z,16.90
2019-03-28T14:53:18.100Z,17.00
2019-03-28T14:55:46.665Z,17.00
2019-03-28T14:58:15.773Z,17.00
2019-03-28T15:00:49.900Z,17.00
2019-03-28T15:03:26.061Z,17.10
2019-03-28T15:05:51.056Z,17.00
2019-03-28T15:08:19.945Z,16.80
2019-03-28T15:10:48.974Z,16.70
2019-03-28T15:13:17.834Z,16.60
2019-03-28T15:15:46.419Z,16.60
2019-03-28T15:18:17.459Z,16.30
2019-03-28T15:20:46.365Z,16.10
2019-03-28T15:23:14.930Z,16.10
2019-03-28T15:25:43.653Z,16.20
2019-03-28T15:28:12.663Z,16.20
2019-03-28T15:30:42.032Z,16.30
2019-03-28T15:33:10.632Z,16.20
2019-03-28T15:35:39.486Z,16.30
2019-03-28T15:38:08.356Z,16.30
2019-03-28T15:40:36.988Z,16.30
2019-03-28T15:43:05.965Z,16.20
2019-03-28T15:45:37.203Z,16.20
2019-03-28T15:48:09.980Z,16.20
2019-03-28T15:50:38.933Z,16.00
2019-03-28T15:53:07.514Z,15.90
2019-03-28T15:55:36.010Z,15.90
2019-03-28T15:58:22.150Z,15.90
2019-03-28T16:00:39.001Z,15.90
2019-03-28T16:03:09.414Z,15.90
2019-03-28T16:05:39.010Z,15.90
2019-03-28T16:08:07.496Z,15.80
2019-03-28T16:10:36.416Z,15.80
2019-03-28T16:13:05.922Z,15.70
2019-03-28T16:15:34.568Z,15.80
2019-03-28T16:18:03.486Z,15.90
2019-03-28T16:20:32.265Z,15.80
2019-03-28T16:23:04.218Z,15.80
2019-03-28T16:25:33.158Z,15.80
2019-03-28T16:28:02.090Z,15.70
2019-03-28T16:30:37.686Z,15.70
2019-03-28T16:33:07.124Z,15.70
2019-03-28T16:35:35.860Z,15.60
2019-03-28T16:38:06.087Z,15.50
2019-03-28T16:40:35.642Z,15.40
2019-03-28T16:43:04.242Z,15.30
2019-03-28T16:45:33.053Z,15.20
2019-03-28T16:48:01.553Z,15.10
2019-03-28T16:50:30.438Z,15.10
2019-03-28T16:52:59.066Z,15.20
2019-03-28T16:55:28.285Z,15.10
2019-03-28T16:57:57.286Z,15.10
2019-03-28T17:00:37.224Z,15.00
2019-03-28T17:03:08.328Z,15.00
2019-03-28T17:05:38.692Z,14.90
2019-03-28T17:08:07.686Z,14.90
2019-03-28T17:10:46.882Z,14.90
2019-03-28T17:13:19.000Z,14.80
2019-03-28T17:15:47.558Z,14.70
2019-03-28T17:18:19.286Z,14.70
2019-03-28T17:20:51.162Z,14.60
2019-03-28T17:23:20.064Z,14.60
2019-03-28T17:25:52.971Z,14.50
2019-03-28T17:28:21.496Z,14.40
2019-03-28T17:30:50.404Z,14.40
2019-03-28T17:33:19.335Z,14.30
2019-03-28T17:35:50.221Z,14.20
2019-03-28T17:38:18.974Z,14.10
2019-03-28T17:40:47.863Z,14.10
2019-03-28T17:43:17.551Z,14.10
2019-03-28T17:45:49.123Z,13.90
2019-03-28T17:48:17.950Z,13.80
2019-03-28T17:50:46.600Z,13.70
2019-03-28T17:53:15.488Z,13.60
2019-03-28T17:55:44.289Z,13.50
2019-03-28T17:58:13.265Z,13.40
2019-03-28T18:00:43.567Z,13.30
2019-03-28T18:03:12.157Z,13.20
2019-03-28T18:05:41.107Z,13.10
2019-03-28T18:08:10.724Z,13.10
2019-03-28T18:10:39.176Z,13.10
2019-03-28T18:13:07.657Z,13.10
2019-03-28T18:15:36.587Z,13.10
2019-03-28T18:18:05.712Z,13.00
2019-03-28T18:20:34.195Z,12.90
2019-03-28T18:23:02.639Z,12.80
2019-03-28T18:25:33.722Z,12.70
2019-03-28T18:28:02.619Z,12.60
2019-03-28T18:30:31.942Z,12.50
2019-03-28T18:33:03.752Z,12.50
2019-03-28T18:35:30.659Z,12.40
2019-03-28T18:37:59.108Z,12.40
2019-03-28T18:40:27.887Z,12.40
2019-03-28T18:42:57.896Z,12.30
2019-03-28T18:45:26.885Z,12.20
2019-03-28T18:47:55.590Z,12.10
2019-03-28T18:50:26.383Z,12.00
2019-03-28T18:52:54.835Z,11.90
2019-03-28T18:55:23.318Z,11.80
2019-03-28T18:57:51.885Z,11.90
2019-03-28T19:00:21.834Z,11.90
2019-03-28T19:02:50.361Z,11.90
2019-03-28T19:05:20.303Z,11.80
2019-03-28T19:07:49.448Z,11.70
2019-03-28T19:10:18.297Z,11.60
2019-03-28T19:12:47.826Z,11.50
2019-03-28T19:15:16.680Z,11.50
2019-03-28T19:17:45.259Z,11.40
2019-03-28T19:20:14.795Z,11.30
2019-03-28T19:22:45.666Z,11.20
2019-03-28T19:25:16.446Z,11.10
2019-03-28T19:27:46.480Z,11.10
2019-03-28T19:30:15.622Z,11.00
2019-03-28T19:32:44.558Z,10.90
2019-03-28T19:35:13.289Z,10.80
2019-03-28T19:37:44.746Z,10.70
2019-03-28T19:40:15.102Z,10.60
2019-03-28T19:42:44.088Z,10.50
2019-03-28T19:45:16.065Z,10.30
2019-03-28T19:47:46.070Z,10.20
2019-03-28T19:50:18.129Z,10.20
2019-03-28T19:52:46.726Z,10.10
2019-03-28T19:55:18.289Z,10.10
2019-03-28T19:57:47.082Z,10.10
2019-03-28T20:00:15.959Z,10.00
2019-03-28T20:02:44.731Z,10.00
2019-03-28T20:05:13.845Z,9.90
2019-03-28T20:07:45.669Z,9.90
2019-03-28T20:10:16.497Z,9.90
2019-03-28T20:12:43.109Z,9.90
2019-03-28T20:15:12.159Z,9.70
2019-03-28T20:17:40.677Z,9.60
2019-03-28T20:20:09.707Z,9.60
2019-03-28T20:22:39.076Z,9.50
2019-03-28T20:25:08.922Z,9.50
2019-03-28T20:27:37.473Z,9.50
2019-03-28T20:30:07.550Z,9.40
2019-03-28T20:32:36.075Z,9.30
2019-03-28T20:35:05.366Z,9.20
2019-03-28T20:37:33.901Z,9.20
2019-03-28T20:40:02.725Z,9.20
2019-03-28T20:42:31.970Z,9.10
2019-03-28T20:45:00.501Z,9.00
2019-03-28T20:47:29.318Z,8.90
2019-03-28T20:49:58.087Z,9.00
2019-03-28T20:52:27.947Z,8.90
2019-03-28T20:54:56.640Z,8.80
2019-03-28T20:57:26.556Z,8.80
2019-03-28T20:59:55.080Z,8.80
2019-03-28T21:02:23.797Z,8.80
2019-03-28T21:04:53.854Z,8.70
2019-03-28T21:07:22.409Z,8.60
2019-03-28T21:09:50.924Z,8.60
2019-03-28T21:12:19.727Z,8.50
2019-03-28T21:14:48.216Z,8.60
2019-03-28T21:17:16.664Z,8.50
2019-03-28T21:19:45.422Z,8.50
2019-03-28T21:22:14.249Z,8.50
2019-03-28T21:24:46.414Z,8.50
2019-03-28T21:27:14.894Z,8.40
2019-03-28T21:29:49.155Z,8.40
2019-03-28T21:32:15.342Z,8.40
2019-03-28T21:34:44.649Z,8.40
2019-03-28T21:37:13.490Z,8.40
2019-03-28T21:39:43.927Z,8.30
2019-03-28T21:42:13.961Z,8.20
2019-03-28T21:44:45.517Z,8.10
2019-03-28T21:47:17.107Z,8.10
2019-03-28T21:49:45.934Z,8.00
2019-03-28T21:52:17.940Z,7.90
2019-03-28T21:54:48.618Z,7.80
2019-03-28T21:57:17.106Z,7.80
2019-03-28T21:59:47.148Z,7.80
2019-03-28T22:02:16.160Z,7.70
2019-03-28T22:04:44.702Z,7.70
2019-03-28T22:07:13.578Z,7.60
2019-03-28T22:09:43.174Z,7.50
2019-03-28T22:12:11.963Z,7.50
2019-03-28T22:14:43.692Z,7.50
2019-03-28T22:17:16.423Z,7.50
2019-03-28T22:19:44.955Z,7.40
2019-03-28T22:22:14.425Z,7.40
2019-03-28T22:24:43.166Z,7.40
2019-03-28T22:27:11.937Z,7.40
2019-03-28T22:29:40.490Z,7.40
2019-03-28T22:32:11.675Z,7.40
2019-03-28T22:34:40.264Z,7.40
2019-03-28T22:37:09.086Z,7.40
2019-03-28T22:39:38.933Z,7.50
2019-03-28T22:42:07.688Z,7.40
2019-03-28T22:44:36.987Z,7.40
2019-03-28T22:47:06.120Z,7.40
2019-03-28T22:49:35.140Z,7.40
2019-03-28T22:52:03.583Z,7.40
2019-03-28T22:54:32.330Z,7.30
2019-03-28T22:57:02.440Z,7.20
2019-03-28T22:59:32.082Z,7.20
2019-03-28T23:02:00.613Z,7.20
2019-03-28T23:04:29.912Z,7.10
2019-03-28T23:07:10.315Z,7.00
2019-03-28T23:09:28.918Z,6.90
2019-03-28T23:11:57.408Z,6.90
2019-03-28T23:14:25.862Z,6.80
2019-03-28T23:16:55.113Z,6.70
2019-03-28T23:19:24.301Z,6.70
2019-03-28T23:21:53.110Z,6.70
2019-03-28T23:24:22.039Z,6.70
2019-03-28T23:26:50.953Z,6.70
2019-03-28T23:29:19.396Z,6.70
2019-03-28T23:31:52.435Z,6.70
2019-03-28T23:34:21.241Z,6.60
2019-03-28T23:36:51.577Z,6.50
2019-03-28T23:39:20.067Z,6.50
2019-03-28T23:41:49.813Z,6.40
2019-03-28T23:44:18.669Z,6.40
2019-03-28T23:46:47.507Z,6.40
2019-03-28T23:49:24.732Z,6.40
2019-03-28T23:51:53.206Z,6.40
2019-03-28T23:54:23.094Z,6.50
2019-03-28T23:56:51.823Z,6.50
2019-03-28T23:59:20.669Z,6.50
